METAR Data
IDs: Format: Raw Decoded Include TAF

Data at: 1448 UTC 11 Dec 2018

KRBD 111353Z 20005KT 10SM CLR 05/M01 A3032 RMK AO2 SLP270 T00501006
KRBD 111253Z 20005KT 10SM CLR 04/M01 A3032 RMK AO2 SLP269 T00441011 $
KRBD 111153Z AUTO 20005KT 10SM 04/M02 A3033 RMK AO2 SLP270 7//// T00391017 10061 20028 55004 $
KRBD 111053Z AUTO 19004KT 10SM 03/M01 A3032 RMK AO2 SLP266 T00331011 $
KRBD 110953Z AUTO 16004KT 10SM 04/M01 A3032 RMK AO2 SLP268 T00391011 $
KRBD 110853Z AUTO 19003KT 10SM CLR 04/M01 A3034 RMK AO2 SLP273 T00441006 58003
KRBD 110753Z AUTO 21005KT 10SM CLR 06/M01 A3034 RMK AO2 SLP275 T00561006
KRBD 110653Z AUTO 19005KT 10SM CLR 05/M01 A3034 RMK AO2 SLP275 T00501011
KRBD 110553Z AUTO 19005KT 10SM CLR 06/M01 A3035 RMK AO2 SLP276 T00561011 10094 20050 401280006 51000
KRBD 110453Z AUTO 18007KT 10SM CLR 06/M01 A3035 RMK AO2 SLP277 T00561011
KRBD 110353Z AUTO 20005KT 10SM CLR 06/M01 A3035 RMK AO2 SLP278 T00611006
KRBD 110253Z AUTO 18006KT 10SM CLR 07/00 A3035 RMK AO2 SLP278 T00670000 50006
KRBD 110153Z 19005KT 10SM CLR 07/M01 A3035 RMK AO2 SLP279 T00721011
KRBD 110053Z 19005KT 10SM CLR 08/M02 A3034 RMK AO2 SLP276 T00831022
KRBD 102353Z 17004KT 10SM CLR 09/M02 A3033 RMK AO2 SLP272 6//// T00941022 10128 20094 51002
KRBD 102253Z 00000KT 10SM CLR 13/M03 A3033 RMK AO2 SLP271 T01281033
KRBD 102153Z 00000KT 10SM CLR 13/M04 A3033 RMK AO2 SLP270 T01281044
KRBD 102053Z 00000KT 10SM CLR 12/M04 A3032 RMK AO2 SLP269 6//// T01221039 56020
KRBD 101953Z 34003KT 10SM CLR 12/M04 A3033 RMK AO2 SLP272 T01221039
KRBD 101853Z 32004KT 10SM CLR 11/M03 A3035 RMK AO2 SLP280 T01111033
KRBD 101753Z 30006KT 10SM CLR 10/M04 A3038 RMK AO2 SLP290 6//// T01001039 10106 20006 58001 PNO $
KRBD 101653Z VRB04KT 10SM CLR 09/00 A3040 RMK AO2 SLP295 T00890000 PNO
KRBD 101553Z 31003KT 10SM CLR 06/M01 A3040 RMK AO2 SLP296 T00611006 PNO
KRBD 101453Z 31006KT 10SM CLR 04/M01 A3039 RMK AO2 SLP292 6//// T00391011 53016 PNO
KRBD 101353Z 29006KT 10SM CLR 01/M02 A3037 RMK AO2 SLP286 T00111017 PNO $
KRBD 101253Z 29005KT 10SM CLR 01/M02 A3035 RMK AO2 SLP281 T00061022 PNO $
KRBD 101153Z AUTO 28004KT 10SM CLR 01/M02 A3034 RMK AO2 SLP276 6//// 7//// T00111022 10028 20011 55001 PNO $
KRBD 101053Z AUTO 30005KT 10SM CLR 01/M02 A3034 RMK AO2 SLP275 T00111022 PNO $
KRBD 100953Z AUTO 30005KT 10SM CLR 02/M02 A3033 RMK AO2 SLP273 T00171022 PNO $
KRBD 100853Z AUTO 30006KT 10SM CLR 02/M02 A3034 RMK AO2 SLP276 6//// T00171017 55004 PNO $
KRBD 100753Z AUTO 28005KT 10SM CLR 03/M02 A3034 RMK AO2 SLP275 T00281017 PNO $
KRBD 100653Z AUTO 32006KT 10SM CLR 02/M02 A3035 RMK AO2 SLP278 T00221017 PNO $
KRBD 100553Z AUTO 31006KT 10SM CLR 03/M02 A3036 RMK AO2 SLP281 6//// T00281017 10061 20028 401000022 50002 PNO $
KRBD 100453Z AUTO 31007KT 10SM CLR 03/M01 A3036 RMK AO2 SLP284 T00331011 PNO $
KRBD 100353Z AUTO 32006KT 10SM CLR 03/M01 A3036 RMK AO2 SLP282 T00331011 PNO $
KRBD 100253Z AUTO 32008KT 10SM CLR 04/M01 A3035 RMK AO2 SLP279 6//// T00441006 53013 PNO $